Time,TemperatureF,DewpointF,PressureIn,WindDirection,WindDirectionDegrees,WindSpeedMPH,WindSpeedGustMPH,Humidity,HourlyPrecipIn,Conditions,Clouds,dailyrainin,SolarRadiationWatts/m^2,SoftwareType,DateUTC
2013-11-07 00:01:00,71.4,68.6,30.01,NE,39,0.0,0.0,91,0.00,,FEW021,0.00,0.00,VWS V14.01,2013-11-07 05:01:00,
2013-11-07 00:02:00,71.4,68.6,30.01,NE,39,0.0,0.0,91,0.00,,FEW021,0.00,0.00,VWS V14.01,2013-11-07 05:02:00,
2013-11-07 00:06:00,71.3,68.5,30.01,NE,39,0.0,0.0,91,0.00,,FEW021,0.00,0.00,VWS V14.01,2013-11-07 05:06:00,
2013-11-07 00:11:00,71.2,68.4,30.01,NE,39,0.0,0.0,91,0.00,,FEW021,0.00,0.00,VWS V14.01,2013-11-07 05:11:00,
2013-11-07 00:16:00,71.1,68.3,30.01,NE,39,0.0,0.0,91,0.00,,FEW021,0.00,0.00,VWS V14.01,2013-11-07 05:16:00,
2013-11-07 00:21:00,71.2,68.4,30.01,NE,38,0.0,0.0,91,0.00,,FEW021,0.00,0.00,VWS V14.01,2013-11-07 05:21:00,
2013-11-07 00:26:00,71.1,68.3,30.01,NE,39,0.0,0.0,91,0.00,,FEW021,0.00,0.00,VWS V14.01,2013-11-07 05:26:00,
2013-11-07 00:31:00,71.0,68.2,30.01,NE,38,0.0,0.0,91,0.00,,FEW021,0.00,0.00,VWS V14.01,2013-11-07 05:31:00,
2013-11-07 00:36:00,71.0,68.6,30.00,NE,39,0.0,0.0,92,0.00,,FEW021,0.00,0.00,VWS V14.01,2013-11-07 05:36:00,
2013-11-07 00:41:00,70.9,68.5,30.00,NE,39,0.0,0.0,92,0.00,,FEW021,0.00,0.00,VWS V14.01,2013-11-07 05:41:00,
2013-11-07 00:46:00,70.8,68.4,30.00,NE,39,0.0,0.0,92,0.00,,FEW021,0.00,0.00,VWS V14.01,2013-11-07 05:46:00,
2013-11-07 00:51:00,70.7,68.3,30.00,NE,39,0.0,0.0,92,0.00,,FEW021,0.00,0.00,VWS V14.01,2013-11-07 05:51:00,
2013-11-07 00:56:00,70.6,68.2,30.00,NE,39,0.0,0.0,92,0.00,,FEW021,0.00,0.00,VWS V14.01,2013-11-07 05:56:00,
2013-11-07 01:01:00,70.4,68.0,30.00,NE,39,0.0,0.0,92,0.00,,FEW021,0.00,0.00,VWS V14.01,2013-11-07 06:01:00,
2013-11-07 01:06:00,70.4,68.0,29.99,NE,39,0.0,0.0,92,0.00,,FEW021,0.00,0.00,VWS V14.01,2013-11-07 06:06:00,
2013-11-07 01:11:00,70.3,67.9,29.99,NE,39,0.0,0.0,92,0.00,,FEW021,0.00,0.00,VWS V14.01,2013-11-07 06:11:00,
2013-11-07 01:16:00,70.1,67.7,29.99,NE,39,0.0,0.0,92,0.00,,FEW021,0.00,0.00,VWS V14.01,2013-11-07 06:16:00,
2013-11-07 01:21:00,70.0,67.6,29.99,NE,39,0.0,0.0,92,0.00,,FEW021,0.00,0.00,VWS V14.01,2013-11-07 06:21:00,
2013-11-07 01:26:00,69.9,67.8,29.99,NE,39,0.0,0.0,93,0.00,,FEW021,0.00,0.00,VWS V14.01,2013-11-07 06:26:00,
2013-11-07 01:31:00,69.9,67.8,29.99,NE,39,0.0,0.0,93,0.00,,FEW021,0.00,0.00,VWS V14.01,2013-11-07 06:31:00,
2013-11-07 01:36:00,69.9,67.8,29.99,NE,39,0.0,0.0,93,0.00,,FEW021,0.00,0.00,VWS V14.01,2013-11-07 06:36:00,
2013-11-07 01:41:00,69.9,67.8,29.99,NE,38,1.0,2.0,93,0.00,,FEW021,0.00,0.00,VWS V14.01,2013-11-07 06:41:00,
2013-11-07 01:46:00,69.8,67.7,29.98,NE,39,1.0,1.0,93,0.00,,FEW021,0.00,0.00,VWS V14.01,2013-11-07 06:46:00,
2013-11-07 01:51:00,69.8,67.7,29.98,NE,39,0.0,1.0,93,0.00,,FEW021,0.00,0.00,VWS V14.01,2013-11-07 06:51:00,
2013-11-07 01:56:00,69.8,67.7,29.98,NE,39,0.0,0.0,93,0.00,,FEW021,0.00,0.00,VWS V14.01,2013-11-07 06:56:00,
2013-11-07 02:01:00,69.8,67.7,29.98,NE,39,0.0,0.0,93,0.00,,FEW021,0.00,0.00,VWS V14.01,2013-11-07 07:01:00,
2013-11-07 02:06:00,69.8,67.7,29.98,NE,39,1.0,2.0,93,0.00,,FEW021,0.00,0.00,VWS V14.01,2013-11-07 07:06:00,
2013-11-07 02:11:00,69.7,67.6,29.98,NE,39,0.0,2.0,93,0.00,,FEW021,0.00,0.00,VWS V14.01,2013-11-07 07:11:00,
2013-11-07 02:16:00,69.7,67.6,29.98,NE,39,0.0,1.0,93,0.00,,FEW021,0.00,0.00,VWS V14.01,2013-11-07 07:16:00,
2013-11-07 02:21:00,69.7,67.6,29.98,NE,39,1.0,2.0,93,0.00,,FEW021,0.00,0.00,VWS V14.01,2013-11-07 07:21:00,
2013-11-07 02:26:00,69.6,67.5,29.97,NE,38,2.0,2.0,93,0.00,,FEW021,0.00,0.00,VWS V14.01,2013-11-07 07:26:00,
2013-11-07 02:31:00,69.6,67.8,29.97,NE,39,1.0,2.0,94,0.00,,FEW021,0.00,0.00,VWS V14.01,2013-11-07 07:31:00,
2013-11-07 02:36:00,69.7,67.9,29.97,NNE,26,0.0,1.0,94,0.00,,FEW021,0.00,0.00,VWS V14.01,2013-11-07 07:36:00,
2013-11-07 02:41:00,69.7,67.9,29.97,NNE,26,1.0,2.0,94,0.00,,FEW021,0.00,0.00,VWS V14.01,2013-11-07 07:41:00,
2013-11-07 02:46:00,69.7,67.9,29.97,NNE,26,1.0,2.0,94,0.00,,FEW021,0.00,0.00,VWS V14.01,2013-11-07 07:46:00,
2013-11-07 02:51:00,69.6,67.8,29.97,NNE,26,0.0,1.0,94,0.00,,FEW021,0.00,0.00,VWS V14.01,2013-11-07 07:51:00,
2013-11-07 02:56:00,69.6,67.8,29.97,NNE,26,1.0,2.0,94,0.00,,FEW021,0.00,0.00,VWS V14.01,2013-11-07 07:56:00,
2013-11-07 03:01:00,69.5,67.7,29.97,NNE,26,0.0,1.0,94,0.00,,FEW021,0.00,0.00,VWS V14.01,2013-11-07 08:01:00,
2013-11-07 03:06:00,69.5,67.7,29.97,NNE,26,0.0,2.0,94,0.00,,FEW021,0.00,0.00,VWS V14.01,2013-11-07 08:06:00,
2013-11-07 03:11:00,69.4,67.6,29.97,NNE,26,2.0,2.0,94,0.00,,FEW021,0.00,0.00,VWS V14.01,2013-11-07 08:11:00,
2013-11-07 03:16:00,69.3,67.2,29.96,NNE,26,1.0,2.0,93,0.00,,FEW021,0.00,0.00,VWS V14.01,2013-11-07 08:16:00,
2013-11-07 03:21:00,69.2,67.4,29.96,NNE,26,1.0,2.0,94,0.00,,FEW021,0.00,0.00,VWS V14.01,2013-11-07 08:21:00,
2013-11-07 03:26:00,69.1,67.3,29.96,NNE,26,0.0,0.0,94,0.00,,FEW021,0.00,0.00,VWS V14.01,2013-11-07 08:26:00,
2013-11-07 03:31:00,69.2,67.4,29.96,NNE,26,0.0,0.0,94,0.00,,FEW021,0.00,0.00,VWS V14.01,2013-11-07 08:31:00,
2013-11-07 03:36:00,69.2,67.4,29.96,NNE,26,0.0,0.0,94,0.00,,FEW021,0.00,0.00,VWS V14.01,2013-11-07 08:36:00,
2013-11-07 03:41:00,69.1,67.3,29.96,NNE,26,0.0,0.0,94,0.00,,FEW021,0.00,0.00,VWS V14.01,2013-11-07 08:41:00,
2013-11-07 03:46:00,69.1,67.3,29.95,NNE,26,0.0,0.0,94,0.00,,FEW021,0.00,0.00,VWS V14.01,2013-11-07 08:46:00,
2013-11-07 03:51:00,68.9,67.1,29.95,NNE,26,0.0,0.0,94,0.00,,FEW021,0.00,0.00,VWS V14.01,2013-11-07 08:51:00,
2013-11-07 03:56:00,68.8,67.0,29.95,NNE,26,0.0,0.0,94,0.00,,FEW021,0.00,0.00,VWS V14.01,2013-11-07 08:56:00,
2013-11-07 04:01:00,68.8,67.0,29.95,NNE,26,0.0,0.0,94,0.00,,FEW021,0.00,0.00,VWS V14.01,2013-11-07 09:01:00,
2013-11-07 04:06:00,68.7,66.9,29.95,NNE,26,0.0,0.0,94,0.00,,FEW021,0.00,0.00,VWS V14.01,2013-11-07 09:06:00,
2013-11-07 04:11:00,68.7,66.9,29.95,NNE,26,0.0,0.0,94,0.00,,FEW021,0.00,0.00,VWS V14.01,2013-11-07 09:11:00,
2013-11-07 04:16:00,68.6,66.8,29.95,NNE,26,1.0,2.0,94,0.00,,FEW021,0.00,0.00,VWS V14.01,2013-11-07 09:16:00,
2013-11-07 04:21:00,68.5,66.7,29.95,NNE,26,0.0,1.0,94,0.00,,FEW021,0.00,0.00,VWS V14.01,2013-11-07 09:21:00,
2013-11-07 04:26:00,68.5,66.7,29.95,NNE,26,2.0,2.0,94,0.00,,FEW021,0.00,0.00,VWS V14.01,2013-11-07 09:26:00,
2013-11-07 04:31:00,68.5,66.7,29.95,NNE,26,1.0,2.0,94,0.00,,FEW021,0.00,0.00,VWS V14.01,2013-11-07 09:31:00,
2013-11-07 04:36:00,68.5,66.7,29.96,NNE,26,1.0,2.0,94,0.00,,FEW021,0.00,0.00,VWS V14.01,2013-11-07 09:36:00,
2013-11-07 04:41:00,68.5,66.7,29.95,NNE,26,0.0,1.0,94,0.00,,FEW021,0.00,0.00,VWS V14.01,2013-11-07 09:41:00,
2013-11-07 04:46:00,68.5,66.7,29.95,NNE,26,1.0,2.0,94,0.00,,FEW021,0.00,0.00,VWS V14.01,2013-11-07 09:46:00,
2013-11-07 04:51:00,68.4,66.6,29.96,NNE,26,0.0,1.0,94,0.00,,FEW021,0.00,0.00,VWS V14.01,2013-11-07 09:51:00,
2013-11-07 04:56:00,68.3,66.5,29.95,NNE,26,0.0,0.0,94,0.00,,FEW021,0.00,0.00,VWS V14.01,2013-11-07 09:56:00,
2013-11-07 05:01:00,68.2,66.4,29.95,NNE,26,0.0,1.0,94,0.00,,FEW021,0.00,0.00,VWS V14.01,2013-11-07 10:01:00,
2013-11-07 05:06:00,68.2,66.4,29.96,NNE,26,1.0,2.0,94,0.00,,FEW021,0.00,0.00,VWS V14.01,2013-11-07 10:06:00,
2013-11-07 05:11:00,68.3,66.5,29.96,NNE,22,3.0,3.0,94,0.00,,FEW021,0.00,0.00,VWS V14.01,2013-11-07 10:11:00,
2013-11-07 05:16:00,68.3,66.8,29.96,NNE,22,1.0,1.0,95,0.00,,FEW021,0.00,0.00,VWS V14.01,2013-11-07 10:16:00,
2013-11-07 05:20:00,68.4,66.9,29.96,NNE,22,1.0,1.0,95,0.00,,FEW021,0.00,0.00,VWS V14.01,2013-11-07 10:20:00,
2013-11-07 05:25:00,68.4,66.6,29.96,NNE,22,1.0,2.0,94,0.00,,FEW021,0.00,0.00,VWS V14.01,2013-11-07 10:25:00,
2013-11-07 05:30:00,68.5,66.7,29.96,NNE,22,1.0,1.0,94,0.00,,FEW021,0.00,0.00,VWS V14.01,2013-11-07 10:30:00,
2013-11-07 05:35:00,68.5,66.7,29.96,NNE,22,1.0,2.0,94,0.00,,FEW021,0.00,0.00,VWS V14.01,2013-11-07 10:35:00,
2013-11-07 05:40:00,68.4,66.6,29.97,NNE,22,0.0,2.0,94,0.00,,FEW021,0.00,0.00,VWS V14.01,2013-11-07 10:40:00,
2013-11-07 05:45:00,68.3,66.5,29.97,NNE,22,0.0,2.0,94,0.00,,FEW021,0.00,0.00,VWS V14.01,2013-11-07 10:45:00,
2013-11-07 05:50:00,68.2,66.4,29.97,NNE,22,0.0,2.0,94,0.00,,FEW021,0.00,0.00,VWS V14.01,2013-11-07 10:50:00,
2013-11-07 05:55:00,68.3,66.5,29.97,NNE,22,1.0,3.0,94,0.00,,FEW021,0.00,0.00,VWS V14.01,2013-11-07 10:55:00,
2013-11-07 06:00:00,68.5,67.0,29.97,NNE,22,1.0,2.0,95,0.00,,FEW021,0.00,0.00,VWS V14.01,2013-11-07 11:00:00,
2013-11-07 06:05:00,68.6,67.1,29.97,NNE,22,1.0,3.0,95,0.00,,FEW021,0.00,0.00,VWS V14.01,2013-11-07 11:05:00,
2013-11-07 06:10:00,68.7,67.2,29.97,NNE,15,3.0,3.0,95,0.00,,FEW021,0.00,0.00,VWS V14.01,2013-11-07 11:10:00,
2013-11-07 06:15:00,68.9,67.4,29.97,NNW,338,2.0,4.0,95,0.00,,FEW021,0.00,0.00,VWS V14.01,2013-11-07 11:15:00,
2013-11-07 06:20:00,69.0,67.5,29.98,NNW,338,0.0,3.0,95,0.00,,FEW021,0.00,0.00,VWS V14.01,2013-11-07 11:20:00,
2013-11-07 06:25:00,69.1,67.6,29.98,NNW,338,2.0,3.0,95,0.00,,FEW021,0.00,9.00,VWS V14.01,2013-11-07 11:25:00,
2013-11-07 06:30:00,69.2,67.7,29.98,NNW,338,1.0,2.0,95,0.00,,FEW021,0.00,12.00,VWS V14.01,2013-11-07 11:30:00,
2013-11-07 06:34:00,69.3,67.8,29.98,NNW,336,3.0,4.0,95,0.00,,FEW021,0.00,14.00,VWS V14.01,2013-11-07 11:34:00,
2013-11-07 06:39:00,69.4,67.9,29.99,NW,325,1.0,4.0,95,0.00,,FEW021,0.00,18.00,VWS V14.01,2013-11-07 11:39:00,
2013-11-07 06:44:00,69.5,68.0,29.99,NW,325,1.0,3.0,95,0.00,,FEW021,0.00,23.00,VWS V14.01,2013-11-07 11:44:00,
2013-11-07 06:49:00,69.5,68.0,29.99,NW,326,1.0,3.0,95,0.00,,FEW021,0.00,28.00,VWS V14.01,2013-11-07 11:49:00,
2013-11-07 06:54:00,69.7,68.2,29.99,NW,326,1.0,3.0,95,0.00,,FEW021,0.00,35.00,VWS V14.01,2013-11-07 11:54:00,
2013-11-07 06:59:00,69.8,68.3,29.99,NNW,327,1.0,2.0,95,0.00,,FEW021,0.00,40.00,VWS V14.01,2013-11-07 11:59:00,
2013-11-07 07:04:00,69.9,68.4,29.99,NW,325,1.0,4.0,95,0.00,,FEW021,0.00,44.00,VWS V14.01,2013-11-07 12:04:00,
2013-11-07 07:09:00,70.1,68.6,29.99,NW,325,1.0,2.0,95,0.00,,FEW021,0.00,56.00,VWS V14.01,2013-11-07 12:09:00,
2013-11-07 07:14:00,70.4,68.9,29.99,NW,325,1.0,2.0,95,0.00,,FEW021,0.00,70.00,VWS V14.01,2013-11-07 12:14:00,
2013-11-07 07:19:00,70.7,69.2,30.00,NW,326,2.0,3.0,95,0.00,,FEW021,0.00,47.00,VWS V14.01,2013-11-07 12:19:00,
2013-11-07 07:24:00,70.8,69.0,30.00,NW,326,1.0,2.0,94,0.00,,FEW021,0.00,54.00,VWS V14.01,2013-11-07 12:24:00,
2013-11-07 07:29:00,71.1,69.6,30.00,NW,326,2.0,3.0,95,0.00,,FEW021,0.00,113.00,VWS V14.01,2013-11-07 12:29:00,
2013-11-07 07:34:00,71.5,69.7,29.99,NNW,327,3.0,4.0,94,0.00,,FEW021,0.00,116.00,VWS V14.01,2013-11-07 12:34:00,
2013-11-07 07:39:00,71.8,70.0,29.99,NNW,327,0.0,0.0,94,0.00,,FEW021,0.00,127.00,VWS V14.01,2013-11-07 12:39:00,
2013-11-07 07:44:00,72.2,70.1,29.99,NNW,327,1.0,3.0,93,0.00,,FEW021,0.00,155.00,VWS V14.01,2013-11-07 12:44:00,
2013-11-07 07:49:00,72.6,70.5,29.99,NNW,327,1.0,1.0,93,0.00,,FEW021,0.00,153.00,VWS V14.01,2013-11-07 12:49:00,
2013-11-07 07:54:00,73.0,70.5,29.99,NNW,331,1.0,2.0,92,0.00,,FEW021,0.00,174.00,VWS V14.01,2013-11-07 12:54:00,
2013-11-07 07:59:00,73.5,70.7,30.00,NNW,331,2.0,3.0,91,0.00,,FEW021,0.00,200.00,VWS V14.01,2013-11-07 12:59:00,
2013-11-07 08:04:00,74.2,71.1,30.00,NNW,333,2.0,3.0,90,0.00,,FEW021,0.00,313.00,VWS V14.01,2013-11-07 13:04:00,
2013-11-07 08:09:00,75.0,71.5,30.00,NNW,344,2.0,3.0,89,0.00,,FEW021,0.00,206.00,VWS V14.01,2013-11-07 13:09:00,
2013-11-07 08:14:00,75.3,71.2,30.00,NNE,12,1.0,3.0,87,0.00,,FEW021,0.00,192.00,VWS V14.01,2013-11-07 13:14:00,
2013-11-07 08:18:00,75.7,71.2,30.00,NNE,12,0.0,2.0,86,0.00,,FEW021,0.00,230.00,VWS V14.01,2013-11-07 13:18:00,
2013-11-07 08:23:00,76.2,71.7,30.00,North,355,1.0,5.0,86,0.00,,FEW021,0.00,165.00,VWS V14.01,2013-11-07 13:23:00,
2013-11-07 08:28:00,76.5,71.7,30.00,NNW,330,3.0,4.0,85,0.00,,FEW021,0.00,267.00,VWS V14.01,2013-11-07 13:28:00,
2013-11-07 08:33:00,76.9,71.7,30.00,NNW,345,3.0,5.0,84,0.00,,FEW021,0.00,301.00,VWS V14.01,2013-11-07 13:33:00,
2013-11-07 08:38:00,77.3,71.7,30.01,NNW,343,4.0,4.0,83,0.00,,FEW021,0.00,274.00,VWS V14.01,2013-11-07 13:38:00,
2013-11-07 08:43:00,77.6,71.7,30.01,NNW,346,4.0,5.0,82,0.00,,FEW021,0.00,283.00,VWS V14.01,2013-11-07 13:43:00,
2013-11-07 08:48:00,78.1,72.2,30.01,NNW,336,3.0,5.0,82,0.00,,FEW021,0.00,350.00,VWS V14.01,2013-11-07 13:48:00,
2013-11-07 08:53:00,78.5,71.8,30.01,NNW,335,1.0,6.0,80,0.00,,FEW021,0.00,325.00,VWS V14.01,2013-11-07 13:53:00,
2013-11-07 08:58:00,78.7,72.0,30.01,NNW,339,1.0,3.0,80,0.00,,FEW021,0.00,318.00,VWS V14.01,2013-11-07 13:58:00,
2013-11-07 09:03:00,78.8,72.1,30.01,NW,321,5.0,5.0,80,0.00,,FEW021,0.00,251.00,VWS V14.01,2013-11-07 14:03:00,
2013-11-07 09:08:00,78.8,71.7,30.01,NNW,344,2.0,4.0,79,0.00,,FEW021,0.00,258.00,VWS V14.01,2013-11-07 14:08:00,
2013-11-07 09:13:00,79.0,71.9,30.02,North,355,2.0,3.0,79,0.00,,FEW021,0.00,387.00,VWS V14.01,2013-11-07 14:13:00,
2013-11-07 09:18:00,79.5,72.0,30.01,NNW,343,1.0,6.0,78,0.00,,FEW021,0.00,450.00,VWS V14.01,2013-11-07 14:18:00,
2013-11-07 09:23:00,80.1,72.2,30.01,NW,326,1.0,6.0,77,0.00,,FEW021,0.00,482.00,VWS V14.01,2013-11-07 14:23:00,
2013-11-07 09:28:00,80.9,72.6,30.02,NNW,341,3.0,6.0,76,0.00,,FEW021,0.00,510.00,VWS V14.01,2013-11-07 14:28:00,
2013-11-07 09:33:00,81.5,72.8,30.02,NNW,341,3.0,5.0,75,0.00,,FEW021,0.00,522.00,VWS V14.01,2013-11-07 14:33:00,
2013-11-07 09:38:00,82.1,73.0,30.02,NNW,346,2.0,7.0,74,0.00,,FEW021,0.00,526.00,VWS V14.01,2013-11-07 14:38:00,
2013-11-07 09:43:00,82.5,72.6,30.02,North,355,2.0,5.0,72,0.00,,FEW021,0.00,540.00,VWS V14.01,2013-11-07 14:43:00,
2013-11-07 09:48:00,82.7,72.3,30.02,North,360,4.0,7.0,71,0.00,,FEW021,0.00,552.00,VWS V14.01,2013-11-07 14:48:00,
2013-11-07 09:53:00,82.9,72.1,30.02,North,355,2.0,6.0,70,0.00,,FEW021,0.00,564.00,VWS V14.01,2013-11-07 14:53:00,
2013-11-07 09:58:00,83.0,71.8,30.02,NE,34,2.0,5.0,69,0.00,,FEW021,0.00,582.00,VWS V14.01,2013-11-07 14:58:00,
2013-11-07 10:03:00,83.0,72.2,30.02,NW,321,6.0,6.0,70,0.00,,FEW021,0.00,621.00,VWS V14.01,2013-11-07 15:03:00,
2013-11-07 10:08:00,83.6,71.9,30.02,NNW,348,1.0,3.0,68,0.00,,FEW021,0.00,647.00,VWS V14.01,2013-11-07 15:08:00,
2013-11-07 10:13:00,83.5,71.8,30.02,NE,36,3.0,6.0,68,0.00,,FEW021,0.00,657.00,VWS V14.01,2013-11-07 15:13:00,
2013-11-07 10:18:00,83.2,71.6,30.02,NE,40,4.0,6.0,68,0.00,,FEW021,0.00,673.00,VWS V14.01,2013-11-07 15:18:00,
2013-11-07 10:23:00,83.4,72.6,30.02,NNW,345,2.0,3.0,70,0.00,,FEW021,0.00,693.00,VWS V14.01,2013-11-07 15:23:00,
2013-11-07 10:28:00,83.8,72.1,30.01,NNE,33,4.0,7.0,68,0.00,,FEW021,0.00,687.00,VWS V14.01,2013-11-07 15:28:00,
2013-11-07 10:33:00,83.8,71.7,30.01,East,92,0.0,3.0,67,0.00,,FEW021,0.00,729.00,VWS V14.01,2013-11-07 15:33:00,
2013-11-07 10:38:00,84.1,71.5,30.01,NNE,33,3.0,5.0,66,0.00,,FEW021,0.00,761.00,VWS V14.01,2013-11-07 15:38:00,
2013-11-07 10:43:00,84.2,71.6,30.01,NE,49,2.0,4.0,66,0.00,,FEW021,0.00,795.00,VWS V14.01,2013-11-07 15:43:00,
2013-11-07 10:48:00,84.8,72.2,30.01,NNE,19,2.0,3.0,66,0.00,,FEW021,0.00,786.00,VWS V14.01,2013-11-07 15:48:00,
2013-11-07 10:53:00,84.3,71.7,30.00,NNW,344,3.0,3.0,66,0.00,,FEW021,0.00,181.00,VWS V14.01,2013-11-07 15:53:00,
2013-11-07 10:58:00,85.2,70.2,30.00,NE,38,1.0,5.0,61,0.00,,FEW021,0.00,856.00,VWS V14.01,2013-11-07 15:58:00,
2013-11-07 11:03:00,85.9,70.9,30.00,ENE,70,1.0,5.0,61,0.00,,FEW021,0.00,849.00,VWS V14.01,2013-11-07 16:03:00,
2013-11-07 11:08:00,86.4,70.4,30.00,NNE,32,1.0,5.0,59,0.00,,FEW021,0.00,267.00,VWS V14.01,2013-11-07 16:08:00,
2013-11-07 11:13:00,85.4,71.8,30.00,NNW,340,1.0,5.0,64,0.00,,FEW021,0.00,856.00,VWS V14.01,2013-11-07 16:13:00,
2013-11-07 11:18:00,85.4,70.4,30.00,NNW,336,5.0,7.0,61,0.00,,FEW021,0.00,403.00,VWS V14.01,2013-11-07 16:18:00,
2013-11-07 11:23:00,84.8,69.9,29.99,NNW,348,4.0,5.0,61,0.00,,FEW021,0.00,155.00,VWS V14.01,2013-11-07 16:23:00,
2013-11-07 11:28:00,84.8,70.3,29.99,NNE,24,2.0,3.0,62,0.00,,FEW021,0.00,780.00,VWS V14.01,2013-11-07 16:28:00,
2013-11-07 11:33:00,85.4,69.9,29.99,North,9,3.0,3.0,60,0.00,,FEW021,0.00,823.00,VWS V14.01,2013-11-07 16:33:00,
2013-11-07 11:38:00,86.7,70.7,29.99,NE,42,4.0,4.0,59,0.00,,FEW021,0.00,169.00,VWS V14.01,2013-11-07 16:38:00,
2013-11-07 11:43:00,85.3,68.9,29.99,NE,48,3.0,5.0,58,0.00,,FEW021,0.00,197.00,VWS V14.01,2013-11-07 16:43:00,
2013-11-07 11:48:00,84.8,69.9,29.99,NNE,15,2.0,2.0,61,0.00,,FEW021,0.00,624.00,VWS V14.01,2013-11-07 16:48:00,
2013-11-07 11:53:00,86.4,70.9,29.99,NW,322,2.0,5.0,60,0.00,,FEW021,0.00,819.00,VWS V14.01,2013-11-07 16:53:00,
2013-11-07 11:58:00,86.8,70.3,29.98,NE,53,3.0,4.0,58,0.00,,FEW021,0.00,860.00,VWS V14.01,2013-11-07 16:58:00,
2013-11-07 12:03:00,86.9,71.3,29.98,NNW,340,5.0,5.0,60,0.00,,FEW021,0.00,877.00,VWS V14.01,2013-11-07 17:03:00,
2013-11-07 12:08:00,87.1,70.5,29.98,NNW,329,2.0,6.0,58,0.00,,FEW021,0.00,162.00,VWS V14.01,2013-11-07 17:08:00,
2013-11-07 12:13:00,85.8,69.8,29.98,North,350,1.0,5.0,59,0.00,,FEW021,0.00,179.00,VWS V14.01,2013-11-07 17:13:00,
2013-11-07 12:18:00,84.9,69.0,29.98,NNW,348,0.0,4.0,59,0.00,,FEW021,0.00,158.00,VWS V14.01,2013-11-07 17:18:00,
2013-11-07 12:23:00,84.2,69.3,29.97,SSW,198,0.0,2.0,61,0.00,,FEW021,0.00,192.00,VWS V14.01,2013-11-07 17:23:00,
2013-11-07 12:28:00,85.8,70.3,29.97,NE,44,2.0,4.0,60,0.00,,FEW021,0.00,895.00,VWS V14.01,2013-11-07 17:28:00,
2013-11-07 12:33:00,87.7,70.1,29.97,NNW,336,1.0,5.0,56,0.00,,FEW021,0.00,946.00,VWS V14.01,2013-11-07 17:33:00,
2013-11-07 12:38:00,89.0,70.8,29.97,NNW,347,5.0,6.0,55,0.00,,FEW021,0.00,942.00,VWS V14.01,2013-11-07 17:38:00,
2013-11-07 12:43:00,88.6,70.4,29.97,NNE,13,5.0,6.0,55,0.00,,FEW021,0.00,635.00,VWS V14.01,2013-11-07 17:43:00,
2013-11-07 12:48:00,87.8,70.2,29.96,North,5,0.0,5.0,56,0.00,,FEW021,0.00,861.00,VWS V14.01,2013-11-07 17:48:00,
2013-11-07 12:53:00,87.7,69.5,29.96,WNW,287,2.0,4.0,55,0.00,,FEW021,0.00,858.00,VWS V14.01,2013-11-07 17:53:00,
2013-11-07 12:58:00,88.5,70.3,29.96,WNW,303,4.0,6.0,55,0.00,,FEW021,0.00,390.00,VWS V14.01,2013-11-07 17:58:00,
2013-11-07 13:03:00,88.6,69.3,29.95,NNW,331,5.0,6.0,53,0.00,,FEW021,0.00,835.00,VWS V14.01,2013-11-07 18:03:00,
2013-11-07 13:08:00,88.8,69.5,29.95,NW,323,8.0,9.0,53,0.00,,FEW021,0.00,919.00,VWS V14.01,2013-11-07 18:08:00,
2013-11-07 13:13:00,89.6,70.2,29.95,NW,314,4.0,8.0,53,0.00,,FEW021,0.00,837.00,VWS V14.01,2013-11-07 18:13:00,
2013-11-07 13:18:00,89.1,71.9,29.95,NNE,33,3.0,4.0,57,0.00,,FEW021,0.00,754.00,VWS V14.01,2013-11-07 18:18:00,
2013-11-07 13:23:00,88.1,71.0,29.94,NE,42,2.0,7.0,57,0.00,,FEW021,0.00,250.00,VWS V14.01,2013-11-07 18:23:00,
2013-11-07 13:28:00,86.8,69.2,29.94,NE,43,3.0,6.0,56,0.00,,FEW021,0.00,192.00,VWS V14.01,2013-11-07 18:28:00,
2013-11-07 13:33:00,85.6,71.1,29.94,NE,36,2.0,5.0,62,0.00,,FEW021,0.00,186.00,VWS V14.01,2013-11-07 18:33:00,
2013-11-07 13:38:00,84.7,71.2,29.94,NE,42,2.0,5.0,64,0.00,,FEW021,0.00,216.00,VWS V14.01,2013-11-07 18:38:00,
2013-11-07 13:43:00,84.2,70.7,29.94,East,85,2.0,5.0,64,0.00,,FEW021,0.00,288.00,VWS V14.01,2013-11-07 18:43:00,
2013-11-07 13:48:00,84.1,71.1,29.94,ENE,74,2.0,3.0,65,0.00,,FEW021,0.00,341.00,VWS V14.01,2013-11-07 18:48:00,
2013-11-07 13:53:00,84.5,71.4,29.94,ESE,110,1.0,7.0,65,0.00,,FEW021,0.00,355.00,VWS V14.01,2013-11-07 18:53:00,
2013-11-07 13:58:00,84.5,71.0,29.93,ESE,119,2.0,3.0,64,0.00,,FEW021,0.00,213.00,VWS V14.01,2013-11-07 18:58:00,
2013-11-07 14:03:00,84.3,71.3,29.93,NE,47,1.0,4.0,65,0.00,,FEW021,0.00,181.00,VWS V14.01,2013-11-07 19:03:00,
2013-11-07 14:08:00,84.1,71.1,29.93,NNE,30,4.0,6.0,65,0.00,,FEW021,0.00,200.00,VWS V14.01,2013-11-07 19:08:00,
2013-11-07 14:13:00,84.0,71.0,29.93,NE,44,1.0,3.0,65,0.00,,FEW021,0.00,350.00,VWS V14.01,2013-11-07 19:13:00,
2013-11-07 14:18:00,84.3,70.8,29.93,NE,40,3.0,4.0,64,0.00,,FEW021,0.00,320.00,VWS V14.01,2013-11-07 19:18:00,
2013-11-07 14:23:00,84.3,71.3,29.93,SSE,161,2.0,4.0,65,0.00,,FEW021,0.00,279.00,VWS V14.01,2013-11-07 19:23:00,
2013-11-07 14:28:00,84.2,71.2,29.93,NE,46,4.0,4.0,65,0.00,,FEW021,0.00,178.00,VWS V14.01,2013-11-07 19:28:00,
2013-11-07 14:33:00,83.9,70.9,29.93,NE,47,4.0,7.0,65,0.00,,FEW021,0.00,181.00,VWS V14.01,2013-11-07 19:33:00,
2013-11-07 14:37:00,83.7,71.1,29.92,ENE,64,2.0,4.0,66,0.00,,FEW021,0.00,232.00,VWS V14.01,2013-11-07 19:37:00,
2013-11-07 14:42:00,83.8,71.2,29.92,NNE,26,5.0,8.0,66,0.00,,FEW021,0.00,264.00,VWS V14.01,2013-11-07 19:42:00,
2013-11-07 14:47:00,83.6,70.6,29.92,NNE,32,2.0,6.0,65,0.00,,FEW021,0.00,327.00,VWS V14.01,2013-11-07 19:47:00,
2013-11-07 14:52:00,83.8,70.8,29.92,NNE,31,2.0,6.0,65,0.00,,FEW021,0.00,297.00,VWS V14.01,2013-11-07 19:52:00,
2013-11-07 14:57:00,83.9,71.3,29.92,NE,52,5.0,8.0,66,0.00,,FEW021,0.00,221.00,VWS V14.01,2013-11-07 19:57:00,
2013-11-07 15:02:00,83.6,71.1,29.92,NE,41,2.0,7.0,66,0.00,,FEW021,0.00,202.00,VWS V14.01,2013-11-07 20:02:00,
2013-11-07 15:07:00,83.4,70.9,29.92,ENE,67,2.0,5.0,66,0.00,,FEW021,0.00,202.00,VWS V14.01,2013-11-07 20:07:00,
2013-11-07 15:12:00,83.2,70.7,29.92,NE,49,3.0,6.0,66,0.00,,FEW021,0.00,183.00,VWS V14.01,2013-11-07 20:12:00,
2013-11-07 15:17:00,83.0,70.5,29.92,NE,46,3.0,5.0,66,0.00,,FEW021,0.00,172.00,VWS V14.01,2013-11-07 20:17:00,
2013-11-07 15:22:00,82.9,70.8,29.92,NE,51,3.0,8.0,67,0.00,,FEW021,0.00,171.00,VWS V14.01,2013-11-07 20:22:00,
2013-11-07 15:27:00,82.8,71.2,29.92,NNE,32,3.0,9.0,68,0.00,,FEW021,0.00,192.00,VWS V14.01,2013-11-07 20:27:00,
2013-11-07 15:32:00,82.7,71.1,29.92,NE,42,3.0,7.0,68,0.00,,FEW021,0.00,185.00,VWS V14.01,2013-11-07 20:32:00,
2013-11-07 15:37:00,82.6,71.0,29.92,NE,53,3.0,6.0,68,0.00,,FEW021,0.00,167.00,VWS V14.01,2013-11-07 20:37:00,
2013-11-07 15:42:00,82.5,70.9,29.92,NE,39,1.0,4.0,68,0.00,,FEW021,0.00,127.00,VWS V14.01,2013-11-07 20:42:00,
2013-11-07 15:47:00,82.4,70.8,29.92,East,87,3.0,4.0,68,0.00,,FEW021,0.00,139.00,VWS V14.01,2013-11-07 20:47:00,
2013-11-07 15:52:00,82.3,70.7,29.92,NE,46,4.0,7.0,68,0.00,,FEW021,0.00,120.00,VWS V14.01,2013-11-07 20:52:00,
2013-11-07 15:57:00,82.1,70.5,29.92,NE,37,4.0,6.0,68,0.00,,FEW021,0.00,123.00,VWS V14.01,2013-11-07 20:57:00,
2013-11-07 16:02:00,82.1,70.9,29.92,NE,38,3.0,7.0,69,0.00,,FEW021,0.00,123.00,VWS V14.01,2013-11-07 21:02:00,
2013-11-07 16:07:00,82.0,70.8,29.92,NE,34,3.0,4.0,69,0.00,,FEW021,0.00,116.00,VWS V14.01,2013-11-07 21:07:00,
2013-11-07 16:12:00,82.0,70.8,29.93,NE,44,2.0,5.0,69,0.00,,FEW021,0.00,130.00,VWS V14.01,2013-11-07 21:12:00,
2013-11-07 16:17:00,82.0,70.8,29.92,NE,38,2.0,8.0,69,0.00,,FEW021,0.00,95.00,VWS V14.01,2013-11-07 21:17:00,
2013-11-07 16:22:00,81.8,70.6,29.92,NE,42,5.0,9.0,69,0.00,,FEW021,0.00,90.00,VWS V14.01,2013-11-07 21:22:00,
2013-11-07 16:27:00,81.6,70.9,29.92,NE,38,2.0,5.0,70,0.00,,FEW021,0.00,81.00,VWS V14.01,2013-11-07 21:27:00,
2013-11-07 16:32:00,81.5,70.4,29.93,ENE,63,5.0,6.0,69,0.00,,FEW021,0.00,76.00,VWS V14.01,2013-11-07 21:32:00,
2013-11-07 16:37:00,81.3,70.2,29.93,ENE,59,4.0,7.0,69,0.00,,FEW021,0.00,76.00,VWS V14.01,2013-11-07 21:37:00,
2013-11-07 16:42:00,81.2,70.1,29.93,NE,38,4.0,7.0,69,0.00,,FEW021,0.00,69.00,VWS V14.01,2013-11-07 21:42:00,
2013-11-07 16:47:00,81.1,70.4,29.93,NE,39,5.0,9.0,70,0.00,,FEW021,0.00,56.00,VWS V14.01,2013-11-07 21:47:00,
2013-11-07 16:52:00,80.9,70.2,29.93,NE,42,6.0,9.0,70,0.00,,FEW021,0.00,47.00,VWS V14.01,2013-11-07 21:52:00,
2013-11-07 16:57:00,80.8,70.5,29.93,NE,35,4.0,7.0,71,0.00,,FEW021,0.00,40.00,VWS V14.01,2013-11-07 21:57:00,
2013-11-07 17:02:00,80.7,70.8,29.93,ENE,66,4.0,5.0,72,0.00,,FEW021,0.00,28.00,VWS V14.01,2013-11-07 22:02:00,
2013-11-07 17:07:00,80.6,70.8,29.94,NE,42,5.0,9.0,72,0.00,,FEW021,0.00,23.00,VWS V14.01,2013-11-07 22:07:00,
2013-11-07 17:12:00,80.5,70.7,29.94,NE,36,4.0,7.0,72,0.00,,FEW021,0.00,18.00,VWS V14.01,2013-11-07 22:12:00,
2013-11-07 17:17:00,80.3,70.1,29.94,NE,37,1.0,4.0,71,0.00,,FEW021,0.00,12.00,VWS V14.01,2013-11-07 22:17:00,
2013-11-07 17:22:00,80.2,69.5,29.94,NE,41,8.0,8.0,70,0.00,,FEW021,0.00,7.00,VWS V14.01,2013-11-07 22:22:00,
2013-11-07 17:27:00,80.2,69.9,29.94,NE,41,4.0,6.0,71,0.00,,FEW021,0.00,5.00,VWS V14.01,2013-11-07 22:27:00,
2013-11-07 17:32:00,80.2,70.4,29.94,NNE,32,2.0,4.0,72,0.00,,FEW021,0.00,0.00,VWS V14.01,2013-11-07 22:32:00,
2013-11-07 17:37:00,80.2,70.8,29.94,NE,39,5.0,7.0,73,0.00,,FEW021,0.00,0.00,VWS V14.01,2013-11-07 22:37:00,
2013-11-07 17:42:00,80.1,70.7,29.94,NE,47,7.0,7.0,73,0.00,,FEW021,0.00,0.00,VWS V14.01,2013-11-07 22:42:00,
2013-11-07 17:47:00,79.9,70.5,29.95,NNE,23,5.0,6.0,73,0.00,,FEW021,0.00,0.00,VWS V14.01,2013-11-07 22:47:00,
2013-11-07 17:52:00,79.8,70.8,29.95,NE,49,3.0,8.0,74,0.00,,FEW021,0.00,0.00,VWS V14.01,2013-11-07 22:52:00,
2013-11-07 17:57:00,79.8,70.8,29.95,NE,34,3.0,7.0,74,0.00,,FEW021,0.00,0.00,VWS V14.01,2013-11-07 22:57:00,
2013-11-07 18:02:00,79.8,71.2,29.95,NE,41,3.0,6.0,75,0.00,,FEW021,0.00,0.00,VWS V14.01,2013-11-07 23:02:00,
2013-11-07 18:07:00,79.7,71.1,29.95,NE,52,4.0,7.0,75,0.00,,FEW021,0.00,0.00,VWS V14.01,2013-11-07 23:07:00,
2013-11-07 18:12:00,79.6,71.4,29.95,NE,44,3.0,6.0,76,0.00,,FEW021,0.00,0.00,VWS V14.01,2013-11-07 23:12:00,
2013-11-07 18:17:00,79.5,71.3,29.95,NE,43,2.0,5.0,76,0.00,,FEW021,0.00,0.00,VWS V14.01,2013-11-07 23:17:00,
2013-11-07 18:22:00,79.3,71.1,29.95,ENE,70,5.0,9.0,76,0.00,,FEW021,0.00,0.00,VWS V14.01,2013-11-07 23:22:00,
2013-11-07 18:27:00,79.2,71.0,29.95,NE,46,4.0,8.0,76,0.00,,FEW021,0.00,0.00,VWS V14.01,2013-11-07 23:27:00,
2013-11-07 18:32:00,79.1,70.9,29.95,NNE,33,4.0,7.0,76,0.00,,FEW021,0.00,0.00,VWS V14.01,2013-11-07 23:32:00,
2013-11-07 18:37:00,79.1,70.9,29.96,NE,39,3.0,4.0,76,0.00,,FEW021,0.00,0.00,VWS V14.01,2013-11-07 23:37:00,
2013-11-07 18:42:00,79.1,71.3,29.96,NNE,33,3.0,4.0,77,0.00,,FEW021,0.00,0.00,VWS V14.01,2013-11-07 23:42:00,
2013-11-07 18:47:00,79.1,70.9,29.96,NNE,27,2.0,8.0,76,0.00,,FEW021,0.00,0.00,VWS V14.01,2013-11-07 23:47:00,
2013-11-07 18:52:00,79.1,70.9,29.96,NE,39,3.0,5.0,76,0.00,,FEW021,0.00,0.00,VWS V14.01,2013-11-07 23:52:00,
2013-11-07 18:57:00,79.1,70.9,29.96,NNE,30,2.0,2.0,76,0.00,,FEW021,0.00,0.00,VWS V14.01,2013-11-07 23:57:00,
2013-11-07 19:02:00,79.1,71.3,29.96,NNE,21,2.0,4.0,77,0.00,,FEW021,0.00,0.00,VWS V14.01,2013-11-08 00:02:00,
2013-11-07 19:07:00,79.1,71.3,29.97,NNE,32,3.0,6.0,77,0.00,,FEW021,0.00,0.00,VWS V14.01,2013-11-08 00:07:00,
2013-11-07 19:12:00,79.2,71.4,29.97,NE,46,4.0,4.0,77,0.00,,FEW021,0.00,0.00,VWS V14.01,2013-11-08 00:12:00,
2013-11-07 19:17:00,79.2,71.4,29.97,NNE,25,3.0,3.0,77,0.00,,FEW021,0.00,0.00,VWS V14.01,2013-11-08 00:17:00,
2013-11-07 19:22:00,79.1,71.3,29.97,NE,39,10.0,10.0,77,0.00,,FEW021,0.00,0.00,VWS V14.01,2013-11-08 00:22:00,
2013-11-07 19:27:00,79.0,71.2,29.97,NNE,24,3.0,3.0,77,0.00,,FEW021,0.00,0.00,VWS V14.01,2013-11-08 00:27:00,
2013-11-07 19:32:00,78.9,71.5,29.97,NNE,25,2.0,3.0,78,0.00,,FEW021,0.00,0.00,VWS V14.01,2013-11-08 00:32:00,
2013-11-07 19:37:00,78.9,71.5,29.97,NE,36,4.0,8.0,78,0.00,,FEW021,0.00,0.00,VWS V14.01,2013-11-08 00:37:00,
2013-11-07 19:42:00,78.7,71.3,29.97,NE,38,1.0,2.0,78,0.00,,FEW021,0.00,0.00,VWS V14.01,2013-11-08 00:42:00,
2013-11-07 19:47:00,78.5,71.4,29.97,NNE,32,2.0,3.0,79,0.00,,FEW021,0.00,0.00,VWS V14.01,2013-11-08 00:47:00,
2013-11-07 19:52:00,78.3,71.3,29.97,NNE,31,2.0,2.0,79,0.00,,FEW021,0.00,0.00,VWS V14.01,2013-11-08 00:52:00,
2013-11-07 19:57:00,78.0,71.3,29.98,NNE,31,0.0,1.0,80,0.00,,FEW021,0.00,0.00,VWS V14.01,2013-11-08 00:57:00,
2013-11-07 20:02:00,77.8,71.1,29.98,NNE,29,1.0,3.0,80,0.00,,FEW021,0.00,0.00,VWS V14.01,2013-11-08 01:02:00,
2013-11-07 20:07:00,77.6,70.9,29.98,NNE,27,2.0,3.0,80,0.00,,FEW021,0.00,0.00,VWS V14.01,2013-11-08 01:07:00,
2013-11-07 20:12:00,77.4,71.1,29.97,NNE,32,1.0,4.0,81,0.00,,FEW021,0.00,0.00,VWS V14.01,2013-11-08 01:12:00,
2013-11-07 20:17:00,77.3,71.0,29.97,NE,36,1.0,3.0,81,0.00,,FEW021,0.00,0.00,VWS V14.01,2013-11-08 01:17:00,
2013-11-07 20:22:00,77.2,70.9,29.98,NE,38,1.0,3.0,81,0.00,,FEW021,0.00,0.00,VWS V14.01,2013-11-08 01:22:00,
2013-11-07 20:27:00,77.1,70.8,29.97,NE,38,1.0,2.0,81,0.00,,FEW021,0.00,0.00,VWS V14.01,2013-11-08 01:27:00,
2013-11-07 20:32:00,76.9,71.0,29.98,NE,38,1.0,2.0,82,0.00,,FEW021,0.00,0.00,VWS V14.01,2013-11-08 01:32:00,
2013-11-07 20:37:00,76.8,70.9,29.97,NNE,28,2.0,2.0,82,0.00,,FEW021,0.00,0.00,VWS V14.01,2013-11-08 01:37:00,
2013-11-07 20:42:00,76.7,70.8,29.98,North,5,2.0,6.0,82,0.00,,FEW021,0.00,0.00,VWS V14.01,2013-11-08 01:42:00,
2013-11-07 20:47:00,76.6,71.1,29.98,NNE,22,1.0,3.0,83,0.00,,FEW021,0.00,0.00,VWS V14.01,2013-11-08 01:47:00,
2013-11-07 20:52:00,76.5,71.0,29.98,NNE,30,1.0,2.0,83,0.00,,FEW021,0.00,0.00,VWS V14.01,2013-11-08 01:52:00,
2013-11-07 20:57:00,76.4,70.9,29.98,NNE,28,1.0,2.0,83,0.00,,FEW021,0.00,0.00,VWS V14.01,2013-11-08 01:57:00,
2013-11-07 21:02:00,76.3,70.8,29.98,NNE,28,2.0,2.0,83,0.00,,FEW021,0.00,0.00,VWS V14.01,2013-11-08 02:02:00,
2013-11-07 21:07:00,76.2,70.7,29.98,NNE,28,2.0,4.0,83,0.00,,FEW021,0.00,0.00,VWS V14.01,2013-11-08 02:07:00,
2013-11-07 21:12:00,76.0,70.8,29.98,NNE,28,1.0,2.0,84,0.00,,FEW021,0.00,0.00,VWS V14.01,2013-11-08 02:12:00,
2013-11-07 21:17:00,75.9,70.7,29.98,NNE,15,1.0,3.0,84,0.00,,FEW021,0.00,0.00,VWS V14.01,2013-11-08 02:17:00,
2013-11-07 21:22:00,75.8,70.6,29.98,NNE,15,1.0,2.0,84,0.00,,FEW021,0.00,0.00,VWS V14.01,2013-11-08 02:22:00,
2013-11-07 21:27:00,75.7,70.5,29.97,NNE,26,2.0,2.0,84,0.00,,FEW021,0.00,0.00,VWS V14.01,2013-11-08 02:27:00,
2013-11-07 21:32:00,75.6,70.4,29.97,NNE,26,1.0,2.0,84,0.00,,FEW021,0.00,0.00,VWS V14.01,2013-11-08 02:32:00,
2013-11-07 21:37:00,75.5,70.3,29.97,NNE,12,1.0,3.0,84,0.00,,FEW021,0.00,0.00,VWS V14.01,2013-11-08 02:37:00,
2013-11-07 21:42:00,75.4,70.6,29.98,NNE,12,1.0,3.0,85,0.00,,FEW021,0.00,0.00,VWS V14.01,2013-11-08 02:42:00,
2013-11-07 21:47:00,75.3,70.1,29.97,North,5,2.0,3.0,84,0.00,,FEW021,0.00,0.00,VWS V14.01,2013-11-08 02:47:00,
2013-11-07 21:52:00,75.2,70.4,29.97,North,5,2.0,4.0,85,0.00,,FEW021,0.00,0.00,VWS V14.01,2013-11-08 02:52:00,
2013-11-07 21:57:00,75.1,70.3,29.97,North,5,2.0,3.0,85,0.00,,FEW021,0.00,0.00,VWS V14.01,2013-11-08 02:57:00,
2013-11-07 22:02:00,75.0,70.2,29.97,North,5,1.0,2.0,85,0.00,,FEW021,0.00,0.00,VWS V14.01,2013-11-08 03:02:00,
2013-11-07 22:07:00,74.9,70.1,29.97,North,5,1.0,2.0,85,0.00,,FEW021,0.00,0.00,VWS V14.01,2013-11-08 03:07:00,
2013-11-07 22:12:00,74.8,70.0,29.97,North,5,2.0,2.0,85,0.00,,FEW021,0.00,0.00,VWS V14.01,2013-11-08 03:12:00,
2013-11-07 22:17:00,74.8,70.3,29.97,NE,35,1.0,2.0,86,0.00,,FEW021,0.00,0.00,VWS V14.01,2013-11-08 03:17:00,
2013-11-07 22:22:00,74.7,70.2,29.97,NE,35,2.0,2.0,86,0.00,,FEW021,0.00,0.00,VWS V14.01,2013-11-08 03:22:00,
2013-11-07 22:27:00,74.6,70.1,29.97,NE,36,0.0,1.0,86,0.00,,FEW021,0.00,0.00,VWS V14.01,2013-11-08 03:27:00,
2013-11-07 22:32:00,74.5,70.0,29.97,NE,36,0.0,0.0,86,0.00,,FEW021,0.00,0.00,VWS V14.01,2013-11-08 03:32:00,
2013-11-07 22:37:00,74.4,69.9,29.97,NE,36,2.0,2.0,86,0.00,,FEW021,0.00,0.00,VWS V14.01,2013-11-08 03:37:00,
2013-11-07 22:42:00,74.4,69.9,29.97,NE,35,1.0,2.0,86,0.00,,FEW021,0.00,0.00,VWS V14.01,2013-11-08 03:42:00,
2013-11-07 22:47:00,74.3,69.8,29.97,North,360,2.0,2.0,86,0.00,,FEW021,0.00,0.00,VWS V14.01,2013-11-08 03:47:00,
2013-11-07 22:52:00,74.2,69.8,29.97,North,360,1.0,2.0,86,0.00,,FEW021,0.00,0.00,VWS V14.01,2013-11-08 03:52:00,
2013-11-07 22:57:00,74.2,69.8,29.96,North,360,1.0,2.0,86,0.00,,FEW021,0.00,0.00,VWS V14.01,2013-11-08 03:57:00,
2013-11-07 23:02:00,74.1,69.7,29.96,North,360,2.0,2.0,86,0.00,,FEW021,0.00,0.00,VWS V14.01,2013-11-08 04:02:00,
2013-11-07 23:07:00,74.0,69.6,29.97,North,360,0.0,2.0,86,0.00,,FEW021,0.00,0.00,VWS V14.01,2013-11-08 04:07:00,
2013-11-07 23:12:00,73.9,69.8,29.97,North,360,1.0,2.0,87,0.00,,FEW021,0.00,0.00,VWS V14.01,2013-11-08 04:12:00,
2013-11-07 23:17:00,73.8,69.3,29.97,North,360,0.0,1.0,86,0.00,,FEW021,0.00,0.00,VWS V14.01,2013-11-08 04:17:00,
2013-11-07 23:22:00,73.7,69.3,29.97,North,360,1.0,2.0,86,0.00,,FEW021,0.00,0.00,VWS V14.01,2013-11-08 04:22:00,
2013-11-07 23:27:00,73.6,69.5,29.97,North,360,0.0,1.0,87,0.00,,FEW021,0.00,0.00,VWS V14.01,2013-11-08 04:27:00,
2013-11-07 23:32:00,73.4,69.3,29.97,North,360,1.0,2.0,87,0.00,,FEW021,0.00,0.00,VWS V14.01,2013-11-08 04:32:00,
2013-11-07 23:37:00,73.3,69.2,29.97,North,360,1.0,2.0,87,0.00,,FEW021,0.00,0.00,VWS V14.01,2013-11-08 04:37:00,
2013-11-07 23:42:00,73.1,69.0,29.97,North,360,1.0,2.0,87,0.00,,FEW021,0.00,0.00,VWS V14.01,2013-11-08 04:42:00,
2013-11-07 23:47:00,73.0,68.9,29.97,NNW,348,2.0,4.0,87,0.00,,FEW021,0.00,0.00,VWS V14.01,2013-11-08 04:47:00,
2013-11-07 23:52:00,73.0,68.9,29.97,North,350,1.0,3.0,87,0.00,,FEW021,0.00,0.00,VWS V14.01,2013-11-08 04:52:00,
2013-11-07 23:57:00,73.0,68.9,29.97,North,350,1.0,2.0,87,0.00,,FEW021,0.00,0.00,VWS V14.01,2013-11-08 04:57:00,